Guide — WDE7328 — position and weather

sailwx.info

Track history (hours):
 
Tides and Currents Weather Stations Pressure Air Temp Water Temp Dewpoint Dewpoint Depression Visibility Wind Speed Wind Dir Waves Ship Positions

Guide

Owner: CROWLEY MARINE SERVICES INC, SEATTLE, WA. More information available from US FCC via Universal Licensing System and Coast Guard Vessel Documentation Center.

Last reported at 2014-Nov-23 21:33 UTC. Time now 2014-Nov-23 22:34 UTC.
Position N 47°18' W 122°26'.

Length 34 m; draft 5.1 m.

Type: Tug. MMSI: 366759530.

Date/timePositionNaut miles runAvg speedWind from/ knotsBaromVisibWave heightAir tempDewpointWater temp
2014-Nov-23 21:33N 47°18' W 122°26'2 2.2
2014-Nov-23 20:33N 47°15' W 122°26'1 2.0
2014-Nov-23 20:05N 47°16' W 122°26'2 3.7
2014-Nov-23 19:32N 47°16' W 122°23'2 2.1
2014-Nov-23 18:33N 47°16' W 122°26'1 1.1
2014-Nov-23 17:33N 47°15' W 122°26'0 0.0
2014-Nov-23 16:33N 47°15' W 122°26'0 0.0
2014-Nov-23 15:33N 47°15' W 122°26'0 0.0
2014-Nov-23 14:33N 47°15' W 122°26'0 0.0
2014-Nov-23 13:33N 47°15' W 122°26'0 0.0
2014-Nov-23 12:33N 47°15' W 122°26'0 0.0
2014-Nov-23 11:33N 47°15' W 122°26'0 0.0
2014-Nov-23 10:33N 47°15' W 122°26'0 0.0
2014-Nov-23 09:33N 47°15' W 122°26'0 0.0
2014-Nov-23 08:33N 47°15' W 122°26'0 0.0
2014-Nov-23 07:57N 47°15' W 122°26'0 0.0
2014-Nov-23 07:33N 47°15' W 122°26'0 0.0
2014-Nov-23 06:33N 47°15' W 122°26'0 0.0
2014-Nov-23 05:33N 47°15' W 122°26'0 0.0
2014-Nov-23 04:33N 47°15' W 122°26'0 0.0
2014-Nov-23 03:33N 47°15' W 122°26'0 0.0
2014-Nov-23 02:33N 47°15' W 122°26'0 0.0
2014-Nov-23 01:33N 47°15' W 122°26'0 0.0
2014-Nov-23 00:33N 47°15' W 122°26'2 2.1
2014-Nov-22 23:33N 47°17' W 122°24'1 0.6
2014-Nov-22 21:33N 47°17' W 122°25'2 1.8
2014-Nov-22 20:33N 47°15' W 122°26'0 0.0
2014-Nov-22 19:33N 47°15' W 122°26'0 0.0
2014-Nov-22 18:33N 47°15' W 122°26'0 0.0
2014-Nov-22 17:33N 47°15' W 122°26'0 0.0
2014-Nov-22 16:33N 47°15' W 122°26'0 0.0
2014-Nov-22 15:33N 47°15' W 122°26'0 0.0
2014-Nov-22 14:33N 47°15' W 122°26'2 2.3
2014-Nov-22 13:30N 47°15' W 122°22'1 1.6
2014-Nov-22 12:53N 47°16' W 122°24'1 3.8
2014-Nov-22 12:33N 47°17' W 122°25'0 0.2
2014-Nov-22 11:33N 47°17' W 122°25'1 1.5
2014-Nov-22 10:33N 47°16' W 122°23'1 0.9
2014-Nov-22 09:33N 47°16' W 122°24'0 0.0
2014-Nov-22 08:33N 47°16' W 122°24'0 0.3
2014-Nov-22 07:29N 47°16' W 122°24'1 0.8
2014-Nov-22 06:33N 47°16' W 122°25'2 1.5
2014-Nov-22 05:33N 47°15' W 122°26'0 0.0
2014-Nov-22 04:33N 47°15' W 122°26'0 0.0
2014-Nov-22 03:33N 47°15' W 122°26'0 0.0
2014-Nov-22 02:33N 47°15' W 122°26'2 1.8
2014-Nov-22 01:33N 47°16' W 122°23'1 0.6
2014-Nov-22 00:33N 47°15' W 122°23'2 2.1
2014-Nov-21 23:33N 47°15' W 122°26'0 0.0
2014-Nov-21 22:33N 47°15' W 122°26'0 0.0
2014-Nov-21 21:33N 47°15' W 122°26'0 0.0
2014-Nov-21 20:33N 47°15' W 122°26'0 0.0
2014-Nov-21 19:33N 47°15' W 122°26'1 1.1
2014-Nov-21 18:33N 47°16' W 122°25'1 1.3
2014-Nov-21 17:33N 47°17' W 122°26'1 1.0
2014-Nov-21 16:33N 47°16' W 122°26'1 1.1
2014-Nov-21 15:33N 47°15' W 122°26'0 0.0
2014-Nov-21 14:33N 47°15' W 122°26'2 2.1
2014-Nov-21 13:33N 47°16' W 122°23'0 0.4
2014-Nov-21 12:30N 47°15' W 122°22'2 2.2
2014-Nov-21 11:33N 47°17' W 122°25'1 1.3
2014-Nov-21 10:33N 47°16' W 122°23'0 0.0
2014-Nov-21 09:33N 47°16' W 122°23'0 0.5
2014-Nov-21 08:33N 47°16' W 122°24'1 1.2
2014-Nov-21 07:33N 47°17' W 122°25'0 0.3
2014-Nov-21 06:33N 47°17' W 122°25'2 1.6
2014-Nov-21 05:33N 47°15' W 122°26'0 0.0
2014-Nov-21 04:33N 47°15' W 122°26'0 0.0
2014-Nov-21 03:33N 47°15' W 122°26'0 0.0
2014-Nov-21 02:33N 47°15' W 122°26'0 0.0
2014-Nov-21 01:33N 47°15' W 122°26'0 0.0
2014-Nov-21 00:33N 47°15' W 122°26'0 0.0
2014-Nov-20 23:33N 47°15' W 122°26'0 0.0
2014-Nov-20 22:33N 47°15' W 122°26'0 0.0
2014-Nov-20 21:33N 47°15' W 122°26'0 0.0
2014-Nov-20 20:33N 47°15' W 122°26'0 0.0
2014-Nov-20 19:33N 47°15' W 122°26'0 0.0
2014-Nov-20 18:33N 47°15' W 122°26'0 0.0
2014-Nov-20 17:33N 47°15' W 122°26'0 0.0
2014-Nov-20 16:33N 47°15' W 122°26'0 0.0
2014-Nov-20 15:33N 47°15' W 122°26'2 1.6
2014-Nov-20 14:33N 47°17' W 122°25'1 1.2
2014-Nov-20 13:33N 47°16' W 122°27'0 0.5
2014-Nov-20 13:19N 47°16' W 122°27'2 2.1
2014-Nov-20 12:33N 47°16' W 122°24'0 0.0
2014-Nov-20 11:33N 47°16' W 122°24'0 0.0
2014-Nov-20 10:33N 47°16' W 122°24'1 0.7
2014-Nov-20 09:33N 47°16' W 122°25'0 0.4
2014-Nov-20 08:23N 47°17' W 122°25'0 0.0
2014-Nov-20 07:33N 47°17' W 122°25'0 0.4
2014-Nov-20 06:32N 47°17' W 122°25'1 0.6
2014-Nov-20 05:33N 47°17' W 122°25'2 1.5
2014-Nov-20 04:33N 47°15' W 122°26'0 0.0
2014-Nov-20 03:33N 47°15' W 122°26'0 0.0
2014-Nov-20 02:33N 47°15' W 122°26'0 0.0
2014-Nov-20 01:33N 47°15' W 122°26'1 1.4
2014-Nov-20 00:33N 47°17' W 122°27'211.0
2014-Nov-20 00:24N 47°18' W 122°28'8 9.7
2014-Nov-19 23:33N 47°26' W 122°24'211.7
2014-Nov-19 23:23N 47°28' W 122°24'8 9.7
2014-Nov-19 22:33N 47°36' W 122°22'110.6
2014-Nov-19 22:28N 47°36' W 122°21'1 0.7
2014-Nov-19 21:34N 47°36' W 122°22'011.3
2014-Nov-19 21:33N 47°36' W 122°22'0 0.5
2014-Nov-19 20:33N 47°35' W 122°21'0 0.0
2014-Nov-19 20:33N 47°35' W 122°21'4 3.8
2014-Nov-19 19:33N 47°33' W 122°25'0 8.2
2014-Nov-19 19:32N 47°33' W 122°25'9 9.1
2014-Nov-19 18:33N 47°24' W 122°22'2 8.3
2014-Nov-19 18:22N 47°23' W 122°21'7 8.6
2014-Nov-19 17:33N 47°17' W 122°27'2 1.3
2014-Nov-19 16:14N 47°15' W 122°26'0 0.0
2014-Nov-19 15:33N 47°15' W 122°26'0 0.0
2014-Nov-19 14:33N 47°15' W 122°26'2 1.7
2014-Nov-19 13:33N 47°17' W 122°25'1 0.9
2014-Nov-19 12:33N 47°18' W 122°26'0 0.0
2014-Nov-19 11:33N 47°18' W 122°26'0 0.0
2014-Nov-19 10:31N 47°18' W 122°26'1 0.6
2014-Nov-19 09:33N 47°17' W 122°25'2 2.2
2014-Nov-19 08:33N 47°16' W 122°23'2 2.0
2014-Nov-19 07:33N 47°15' W 122°26'0 0.0
2014-Nov-19 06:32N 47°15' W 122°26'0 0.0
2014-Nov-19 05:33N 47°15' W 122°26'0 0.0
2014-Nov-19 04:33N 47°15' W 122°26'0 0.0
2014-Nov-19 03:33N 47°15' W 122°26'0 0.8
2014-Nov-19 02:57N 47°16' W 122°26'2 4.0
2014-Nov-19 02:33N 47°16' W 122°24'1 1.3
2014-Nov-19 01:33N 47°15' W 122°23'2 2.2
2014-Nov-19 00:33N 47°15' W 122°26'0 0.0
2014-Nov-18 23:30N 47°15' W 122°26'0 0.0
2014-Nov-18 22:14N 47°15' W 122°26'0 0.0
2014-Nov-18 21:33N 47°15' W 122°26'0 0.0
2014-Nov-18 20:33N 47°15' W 122°26'0 0.0
2014-Nov-18 19:33N 47°15' W 122°26'0 0.0
2014-Nov-18 18:33N 47°15' W 122°26'0 0.0
2014-Nov-18 17:28N 47°15' W 122°26'0 0.0
2014-Nov-18 16:33N 47°15' W 122°26'0 0.0
2014-Nov-18 15:33N 47°15' W 122°26'0 0.0
2014-Nov-18 14:33N 47°15' W 122°26'0 0.0
2014-Nov-18 13:33N 47°15' W 122°26'0 0.0
2014-Nov-18 12:33N 47°15' W 122°26'1 1.4
2014-Nov-18 11:45N 47°16' W 122°26'1 6.0
2014-Nov-18 11:33N 47°16' W 122°24'1 1.3
2014-Nov-18 10:33N 47°16' W 122°23'2 2.1
2014-Nov-18 09:33N 47°15' W 122°26'0 0.0
2014-Nov-18 09:05N 47°15' W 122°26'0 0.0
2014-Nov-18 08:33N 47°15' W 122°26'0 0.0
2014-Nov-18 07:33N 47°15' W 122°26'0 0.0
2014-Nov-18 06:33N 47°15' W 122°26'0 0.0
2014-Nov-18 05:33N 47°15' W 122°26'0 0.0
2014-Nov-18 04:33N 47°15' W 122°26'0 0.0
2014-Nov-18 03:33N 47°15' W 122°26'0 0.0
2014-Nov-18 02:33N 47°15' W 122°26'2 1.6
2014-Nov-18 01:33N 47°17' W 122°25'2 2.2
2014-Nov-18 00:33N 47°15' W 122°23'3 3.1
2014-Nov-17 23:33N 47°18' W 122°26'0 0.3
2014-Nov-17 22:33N 47°18' W 122°26'0 0.0
2014-Nov-17 21:33N 47°18' W 122°26'1 1.0
2014-Nov-17 20:33N 47°17' W 122°25'1 1.0
2014-Nov-17 19:33N 47°17' W 122°23'4 4.1
2014-Nov-17 18:33N 47°19' W 122°28'1 8.7
2014-Nov-17 18:26N 47°20' W 122°27'8 8.8
2014-Nov-17 17:33N 47°28' W 122°24'711.2
2014-Nov-17 16:55N 47°35' W 122°26'3 8.5
2014-Nov-17 16:33N 47°35' W 122°21'0 2.2
2014-Nov-17 16:29N 47°35' W 122°21'0 0.4
2014-Nov-17 15:33N 47°35' W 122°21'0 0.1
2014-Nov-17 15:29N 47°35' W 122°21'0 0.4
2014-Nov-17 14:33N 47°35' W 122°21'0 0.0
2014-Nov-17 14:29N 47°35' W 122°21'0 0.2
2014-Nov-17 13:33N 47°35' W 122°21'0 0.0
2014-Nov-17 13:29N 47°35' W 122°21'0 0.1
2014-Nov-17 12:33N 47°35' W 122°21'5 5.2
2014-Nov-17 11:33N 47°31' W 122°25'9 9.8
2014-Nov-17 10:40N 47°23' W 122°21'1 9.5
2014-Nov-17 10:33N 47°22' W 122°22'3 9.9
2014-Nov-17 10:16N 47°20' W 122°25'5 6.9
2014-Nov-17 09:33N 47°15' W 122°26'0 0.0
2014-Nov-17 08:33N 47°15' W 122°26'0 0.0
2014-Nov-17 07:33N 47°15' W 122°26'0 0.0
2014-Nov-17 06:33N 47°15' W 122°26'0 0.0
2014-Nov-17 05:33N 47°15' W 122°26'0 0.0
2014-Nov-17 04:28N 47°15' W 122°26'0 0.0
2014-Nov-17 03:33N 47°15' W 122°26'0 0.0
2014-Nov-17 02:33N 47°15' W 122°26'0 0.0
2014-Nov-17 01:33N 47°15' W 122°26'2 1.4
2014-Nov-17 00:14N 47°16' W 122°23'2 2.5
2014-Nov-16 23:30N 47°17' W 122°25'2 1.5
2014-Nov-16 22:15N 47°16' W 122°23'2 1.7
2014-Nov-16 21:08N 47°17' W 122°25'1 0.7
2014-Nov-16 20:19N 47°17' W 122°25'0 0.1
2014-Nov-16 19:33N 47°17' W 122°25'1 0.7
2014-Nov-16 18:15N 47°17' W 122°23'2 2.3
2014-Nov-16 17:33N 47°17' W 122°25'0 0.3
2014-Nov-16 16:33N 47°18' W 122°26'0 0.0
2014-Nov-16 15:33N 47°18' W 122°26'0 0.0
2014-Nov-16 14:33N 47°18' W 122°26'0 0.0
2014-Nov-16 13:33N 47°18' W 122°26'0 0.0
2014-Nov-16 12:33N 47°18' W 122°26'1 1.3
2014-Nov-16 11:33N 47°17' W 122°25'2 1.5
2014-Nov-16 10:33N 47°16' W 122°23'0 3.6
2014-Nov-16 10:33N 47°16' W 122°23'0 0.0
2014-Nov-16 09:33N 47°16' W 122°23'1 1.4
2014-Nov-16 08:33N 47°17' W 122°25'1 1.4
2014-Nov-16 07:33N 47°16' W 122°23'0 0.0
2014-Nov-16 06:33N 47°16' W 122°23'0 0.0
2014-Nov-16 05:33N 47°16' W 122°23'0 0.0
2014-Nov-16 04:56N 47°16' W 122°23'0 0.0
2014-Nov-16 04:33N 47°16' W 122°23'1 0.6
2014-Nov-16 03:33N 47°16' W 122°24'1 0.7
2014-Nov-16 02:30N 47°16' W 122°23'0 0.1
2014-Nov-16 01:33N 47°16' W 122°23'2 2.0
2014-Nov-16 00:33N 47°15' W 122°26'0 0.0
2014-Nov-15 23:33N 47°15' W 122°26'0 0.0
2014-Nov-15 22:32N 47°15' W 122°26'0 0.0
2014-Nov-15 21:33N 47°15' W 122°26'0 0.0
2014-Nov-15 20:29N 47°15' W 122°26'0 0.0
2014-Nov-15 19:33N 47°15' W 122°26'1 1.4
2014-Nov-15 18:55N 47°16' W 122°26'1 3.3
2014-Nov-15 18:33N 47°17' W 122°25'0 0.0
2014-Nov-15 17:33N 47°17' W 122°25'2 1.7
2014-Nov-15 16:33N 47°16' W 122°23'2 2.4
2014-Nov-15 15:50N 47°17' W 122°25'1 4.3
2014-Nov-15 15:33N 47°18' W 122°26'0 0.3
2014-Nov-15 14:33N 47°18' W 122°26'2 1.6
2014-Nov-15 13:33N 47°16' W 122°24'1 1.3
2014-Nov-15 12:33N 47°16' W 122°23'1 0.7
2014-Nov-15 11:33N 47°16' W 122°24'0 0.4
2014-Nov-15 10:32N 47°16' W 122°24'0 0.1
2014-Nov-15 09:33N 47°16' W 122°24'0 0.0
2014-Nov-15 08:29N 47°16' W 122°24'0 0.0
2014-Nov-15 07:33N 47°16' W 122°24'0 0.0
2014-Nov-15 06:29N 47°16' W 122°24'0 0.0
2014-Nov-15 05:28N 47°16' W 122°24'0 0.0
2014-Nov-15 04:28N 47°16' W 122°24'1 1.6
2014-Nov-15 03:32N 47°15' W 122°23'3 3.0
2014-Nov-15 02:33N 47°17' W 122°26'1 0.5
2014-Nov-15 01:33N 47°18' W 122°26'0 0.0
2014-Nov-15 00:33N 47°18' W 122°26'0 0.0
2014-Nov-14 23:33N 47°18' W 122°26'0 0.0
2014-Nov-14 22:33N 47°18' W 122°26'3 2.8
2014-Nov-14 21:33N 47°16' W 122°23'2 2.0
2014-Nov-14 20:33N 47°17' W 122°25'1 0.9
2014-Nov-14 19:31N 47°16' W 122°24'1 2.1
2014-Nov-14 18:58N 47°16' W 122°23'0 0.6
2014-Nov-14 18:33N 47°16' W 122°23'2 1.9
2014-Nov-14 17:33N 47°15' W 122°26'0 0.0
2014-Nov-14 16:33N 47°15' W 122°26'0 0.0
2014-Nov-14 15:33N 47°15' W 122°26'0 0.0
2014-Nov-14 14:33N 47°15' W 122°26'0 0.0
2014-Nov-14 12:33N 47°15' W 122°26'0 0.0
2014-Nov-14 12:22N 47°15' W 122°26'0 0.0
2014-Nov-14 11:33N 47°15' W 122°26'0 0.0
2014-Nov-14 10:33N 47°15' W 122°26'0 0.0
2014-Nov-14 09:33N 47°15' W 122°26'0 0.0
2014-Nov-14 09:31N 47°15' W 122°26'0 0.0
2014-Nov-14 08:33N 47°15' W 122°26'0 0.0
2014-Nov-14 07:33N 47°15' W 122°26'0 0.0
2014-Nov-14 06:33N 47°15' W 122°26'0 0.0
2014-Nov-14 05:33N 47°15' W 122°26'0 0.0
2014-Nov-14 04:33N 47°15' W 122°26'2 2.0
2014-Nov-14 03:31N 47°16' W 122°23'2 1.8
2014-Nov-14 02:33N 47°17' W 122°25'0 0.4
2014-Nov-14 01:33N 47°16' W 122°25'1 0.7
2014-Nov-14 00:33N 47°16' W 122°24'1 1.5
2014-Nov-13 23:33N 47°16' W 122°26'1 1.1
2014-Nov-13 22:33N 47°15' W 122°26'  
Track history (hours):
 
Tides and Currents Weather Stations Pressure Air Temp Water Temp Dewpoint Dewpoint Depression Visibility Wind Speed Wind Dir Waves Ship Positions

Guide

Owner: CROWLEY MARINE SERVICES INC, SEATTLE, WA. More information available from US FCC via Universal Licensing System and Coast Guard Vessel Documentation Center.

Last reported at 2014-Nov-23 21:33 UTC. Time now 2014-Nov-23 22:34 UTC.
Position N 47°18' W 122°26'.

Length 34 m; draft 5.1 m.

Type: Tug. MMSI: 366759530.

Date/timePositionNaut miles runAvg speedWind from/ knotsBaromVisibWave heightAir tempDewpointWater temp
2014-Nov-23 21:33N 47°18' W 122°26'2 2.2
2014-Nov-23 20:33N 47°15' W 122°26'1 2.0
2014-Nov-23 20:05N 47°16' W 122°26'2 3.7
2014-Nov-23 19:32N 47°16' W 122°23'2 2.1
2014-Nov-23 18:33N 47°16' W 122°26'1 1.1
2014-Nov-23 17:33N 47°15' W 122°26'0 0.0
2014-Nov-23 16:33N 47°15' W 122°26'0 0.0
2014-Nov-23 15:33N 47°15' W 122°26'0 0.0
2014-Nov-23 14:33N 47°15' W 122°26'0 0.0
2014-Nov-23 13:33N 47°15' W 122°26'0 0.0
2014-Nov-23 12:33N 47°15' W 122°26'0 0.0
2014-Nov-23 11:33N 47°15' W 122°26'0 0.0
2014-Nov-23 10:33N 47°15' W 122°26'0 0.0
2014-Nov-23 09:33N 47°15' W 122°26'0 0.0
2014-Nov-23 08:33N 47°15' W 122°26'0 0.0
2014-Nov-23 07:57N 47°15' W 122°26'0 0.0
2014-Nov-23 07:33N 47°15' W 122°26'0 0.0
2014-Nov-23 06:33N 47°15' W 122°26'0 0.0
2014-Nov-23 05:33N 47°15' W 122°26'0 0.0
2014-Nov-23 04:33N 47°15' W 122°26'0 0.0
2014-Nov-23 03:33N 47°15' W 122°26'0 0.0
2014-Nov-23 02:33N 47°15' W 122°26'0 0.0
2014-Nov-23 01:33N 47°15' W 122°26'0 0.0
2014-Nov-23 00:33N 47°15' W 122°26'2 2.1
2014-Nov-22 23:33N 47°17' W 122°24'1 0.6
2014-Nov-22 21:33N 47°17' W 122°25'2 1.8
2014-Nov-22 20:33N 47°15' W 122°26'0 0.0
2014-Nov-22 19:33N 47°15' W 122°26'0 0.0
2014-Nov-22 18:33N 47°15' W 122°26'0 0.0
2014-Nov-22 17:33N 47°15' W 122°26'0 0.0
2014-Nov-22 16:33N 47°15' W 122°26'0 0.0
2014-Nov-22 15:33N 47°15' W 122°26'0 0.0
2014-Nov-22 14:33N 47°15' W 122°26'2 2.3
2014-Nov-22 13:30N 47°15' W 122°22'1 1.6
2014-Nov-22 12:53N 47°16' W 122°24'1 3.8
2014-Nov-22 12:33N 47°17' W 122°25'0 0.2
2014-Nov-22 11:33N 47°17' W 122°25'1 1.5
2014-Nov-22 10:33N 47°16' W 122°23'1 0.9
2014-Nov-22 09:33N 47°16' W 122°24'0 0.0
2014-Nov-22 08:33N 47°16' W 122°24'0 0.3
2014-Nov-22 07:29N 47°16' W 122°24'1 0.8
2014-Nov-22 06:33N 47°16' W 122°25'2 1.5
2014-Nov-22 05:33N 47°15' W 122°26'0 0.0
2014-Nov-22 04:33N 47°15' W 122°26'0 0.0
2014-Nov-22 03:33N 47°15' W 122°26'0 0.0
2014-Nov-22 02:33N 47°15' W 122°26'2 1.8
2014-Nov-22 01:33N 47°16' W 122°23'1 0.6
2014-Nov-22 00:33N 47°15' W 122°23'2 2.1
2014-Nov-21 23:33N 47°15' W 122°26'0 0.0
2014-Nov-21 22:33N 47°15' W 122°26'0 0.0
2014-Nov-21 21:33N 47°15' W 122°26'0 0.0
2014-Nov-21 20:33N 47°15' W 122°26'0 0.0
2014-Nov-21 19:33N 47°15' W 122°26'1 1.1
2014-Nov-21 18:33N 47°16' W 122°25'1 1.3
2014-Nov-21 17:33N 47°17' W 122°26'1 1.0
2014-Nov-21 16:33N 47°16' W 122°26'1 1.1
2014-Nov-21 15:33N 47°15' W 122°26'0 0.0
2014-Nov-21 14:33N 47°15' W 122°26'2 2.1
2014-Nov-21 13:33N 47°16' W 122°23'0 0.4
2014-Nov-21 12:30N 47°15' W 122°22'2 2.2
2014-Nov-21 11:33N 47°17' W 122°25'1 1.3
2014-Nov-21 10:33N 47°16' W 122°23'0 0.0
2014-Nov-21 09:33N 47°16' W 122°23'0 0.5
2014-Nov-21 08:33N 47°16' W 122°24'1 1.2
2014-Nov-21 07:33N 47°17' W 122°25'0 0.3
2014-Nov-21 06:33N 47°17' W 122°25'2 1.6
2014-Nov-21 05:33N 47°15' W 122°26'0 0.0
2014-Nov-21 04:33N 47°15' W 122°26'0 0.0
2014-Nov-21 03:33N 47°15' W 122°26'0 0.0
2014-Nov-21 02:33N 47°15' W 122°26'0 0.0
2014-Nov-21 01:33N 47°15' W 122°26'0 0.0
2014-Nov-21 00:33N 47°15' W 122°26'0 0.0
2014-Nov-20 23:33N 47°15' W 122°26'0 0.0
2014-Nov-20 22:33N 47°15' W 122°26'0 0.0
2014-Nov-20 21:33N 47°15' W 122°26'0 0.0
2014-Nov-20 20:33N 47°15' W 122°26'0 0.0
2014-Nov-20 19:33N 47°15' W 122°26'0 0.0
2014-Nov-20 18:33N 47°15' W 122°26'0 0.0
2014-Nov-20 17:33N 47°15' W 122°26'0 0.0
2014-Nov-20 16:33N 47°15' W 122°26'0 0.0
2014-Nov-20 15:33N 47°15' W 122°26'2 1.6
2014-Nov-20 14:33N 47°17' W 122°25'1 1.2
2014-Nov-20 13:33N 47°16' W 122°27'0 0.5
2014-Nov-20 13:19N 47°16' W 122°27'2 2.1
2014-Nov-20 12:33N 47°16' W 122°24'0 0.0
2014-Nov-20 11:33N 47°16' W 122°24'0 0.0
2014-Nov-20 10:33N 47°16' W 122°24'1 0.7
2014-Nov-20 09:33N 47°16' W 122°25'0 0.4
2014-Nov-20 08:23N 47°17' W 122°25'0 0.0
2014-Nov-20 07:33N 47°17' W 122°25'0 0.4
2014-Nov-20 06:32N 47°17' W 122°25'1 0.6
2014-Nov-20 05:33N 47°17' W 122°25'2 1.5
2014-Nov-20 04:33N 47°15' W 122°26'0 0.0
2014-Nov-20 03:33N 47°15' W 122°26'0 0.0
2014-Nov-20 02:33N 47°15' W 122°26'0 0.0
2014-Nov-20 01:33N 47°15' W 122°26'1 1.4
2014-Nov-20 00:33N 47°17' W 122°27'211.0
2014-Nov-20 00:24N 47°18' W 122°28'8 9.7
2014-Nov-19 23:33N 47°26' W 122°24'211.7
2014-Nov-19 23:23N 47°28' W 122°24'8 9.7
2014-Nov-19 22:33N 47°36' W 122°22'110.6
2014-Nov-19 22:28N 47°36' W 122°21'1 0.7
2014-Nov-19 21:34N 47°36' W 122°22'011.3
2014-Nov-19 21:33N 47°36' W 122°22'0 0.5
2014-Nov-19 20:33N 47°35' W 122°21'0 0.0
2014-Nov-19 20:33N 47°35' W 122°21'4 3.8
2014-Nov-19 19:33N 47°33' W 122°25'0 8.2
2014-Nov-19 19:32N 47°33' W 122°25'9 9.1
2014-Nov-19 18:33N 47°24' W 122°22'2 8.3
2014-Nov-19 18:22N 47°23' W 122°21'7 8.6
2014-Nov-19 17:33N 47°17' W 122°27'2 1.3
2014-Nov-19 16:14N 47°15' W 122°26'0 0.0
2014-Nov-19 15:33N 47°15' W 122°26'0 0.0
2014-Nov-19 14:33N 47°15' W 122°26'2 1.7
2014-Nov-19 13:33N 47°17' W 122°25'1 0.9
2014-Nov-19 12:33N 47°18' W 122°26'0 0.0
2014-Nov-19 11:33N 47°18' W 122°26'0 0.0
2014-Nov-19 10:31N 47°18' W 122°26'1 0.6
2014-Nov-19 09:33N 47°17' W 122°25'2 2.2
2014-Nov-19 08:33N 47°16' W 122°23'2 2.0
2014-Nov-19 07:33N 47°15' W 122°26'0 0.0
2014-Nov-19 06:32N 47°15' W 122°26'0 0.0
2014-Nov-19 05:33N 47°15' W 122°26'0 0.0
2014-Nov-19 04:33N 47°15' W 122°26'0 0.0
2014-Nov-19 03:33N 47°15' W 122°26'0 0.8
2014-Nov-19 02:57N 47°16' W 122°26'2 4.0
2014-Nov-19 02:33N 47°16' W 122°24'1 1.3
2014-Nov-19 01:33N 47°15' W 122°23'2 2.2
2014-Nov-19 00:33N 47°15' W 122°26'0 0.0
2014-Nov-18 23:30N 47°15' W 122°26'0 0.0
2014-Nov-18 22:14N 47°15' W 122°26'0 0.0
2014-Nov-18 21:33N 47°15' W 122°26'0 0.0
2014-Nov-18 20:33N 47°15' W 122°26'0 0.0
2014-Nov-18 19:33N 47°15' W 122°26'0 0.0
2014-Nov-18 18:33N 47°15' W 122°26'0 0.0
2014-Nov-18 17:28N 47°15' W 122°26'0 0.0
2014-Nov-18 16:33N 47°15' W 122°26'0 0.0
2014-Nov-18 15:33N 47°15' W 122°26'0 0.0
2014-Nov-18 14:33N 47°15' W 122°26'0 0.0
2014-Nov-18 13:33N 47°15' W 122°26'0 0.0
2014-Nov-18 12:33N 47°15' W 122°26'1 1.4
2014-Nov-18 11:45N 47°16' W 122°26'1 6.0
2014-Nov-18 11:33N 47°16' W 122°24'1 1.3
2014-Nov-18 10:33N 47°16' W 122°23'2 2.1
2014-Nov-18 09:33N 47°15' W 122°26'0 0.0
2014-Nov-18 09:05N 47°15' W 122°26'0 0.0
2014-Nov-18 08:33N 47°15' W 122°26'0 0.0
2014-Nov-18 07:33N 47°15' W 122°26'0 0.0
2014-Nov-18 06:33N 47°15' W 122°26'0 0.0
2014-Nov-18 05:33N 47°15' W 122°26'0 0.0
2014-Nov-18 04:33N 47°15' W 122°26'0 0.0
2014-Nov-18 03:33N 47°15' W 122°26'0 0.0
2014-Nov-18 02:33N 47°15' W 122°26'2 1.6
2014-Nov-18 01:33N 47°17' W 122°25'2 2.2
2014-Nov-18 00:33N 47°15' W 122°23'3 3.1
2014-Nov-17 23:33N 47°18' W 122°26'0 0.3
2014-Nov-17 22:33N 47°18' W 122°26'0 0.0
2014-Nov-17 21:33N 47°18' W 122°26'1 1.0
2014-Nov-17 20:33N 47°17' W 122°25'1 1.0
2014-Nov-17 19:33N 47°17' W 122°23'4 4.1
2014-Nov-17 18:33N 47°19' W 122°28'1 8.7
2014-Nov-17 18:26N 47°20' W 122°27'8 8.8
2014-Nov-17 17:33N 47°28' W 122°24'711.2
2014-Nov-17 16:55N 47°35' W 122°26'3 8.5
2014-Nov-17 16:33N 47°35' W 122°21'0 2.2
2014-Nov-17 16:29N 47°35' W 122°21'0 0.4
2014-Nov-17 15:33N 47°35' W 122°21'0 0.1
2014-Nov-17 15:29N 47°35' W 122°21'0 0.4
2014-Nov-17 14:33N 47°35' W 122°21'0 0.0
2014-Nov-17 14:29N 47°35' W 122°21'0 0.2
2014-Nov-17 13:33N 47°35' W 122°21'0 0.0
2014-Nov-17 13:29N 47°35' W 122°21'0 0.1
2014-Nov-17 12:33N 47°35' W 122°21'5 5.2
2014-Nov-17 11:33N 47°31' W 122°25'9 9.8
2014-Nov-17 10:40N 47°23' W 122°21'1 9.5
2014-Nov-17 10:33N 47°22' W 122°22'3 9.9
2014-Nov-17 10:16N 47°20' W 122°25'5 6.9
2014-Nov-17 09:33N 47°15' W 122°26'0 0.0
2014-Nov-17 08:33N 47°15' W 122°26'0 0.0
2014-Nov-17 07:33N 47°15' W 122°26'0 0.0
2014-Nov-17 06:33N 47°15' W 122°26'0 0.0
2014-Nov-17 05:33N 47°15' W 122°26'0 0.0
2014-Nov-17 04:28N 47°15' W 122°26'0 0.0
2014-Nov-17 03:33N 47°15' W 122°26'0 0.0
2014-Nov-17 02:33N 47°15' W 122°26'0 0.0
2014-Nov-17 01:33N 47°15' W 122°26'2 1.4
2014-Nov-17 00:14N 47°16' W 122°23'2 2.5
2014-Nov-16 23:30N 47°17' W 122°25'2 1.5
2014-Nov-16 22:15N 47°16' W 122°23'2 1.7
2014-Nov-16 21:08N 47°17' W 122°25'1 0.7
2014-Nov-16 20:19N 47°17' W 122°25'0 0.1
2014-Nov-16 19:33N 47°17' W 122°25'1 0.7
2014-Nov-16 18:15N 47°17' W 122°23'2 2.3
2014-Nov-16 17:33N 47°17' W 122°25'0 0.3
2014-Nov-16 16:33N 47°18' W 122°26'0 0.0
2014-Nov-16 15:33N 47°18' W 122°26'0 0.0
2014-Nov-16 14:33N 47°18' W 122°26'0 0.0
2014-Nov-16 13:33N 47°18' W 122°26'0 0.0
2014-Nov-16 12:33N 47°18' W 122°26'1 1.3
2014-Nov-16 11:33N 47°17' W 122°25'2 1.5
2014-Nov-16 10:33N 47°16' W 122°23'0 3.6
2014-Nov-16 10:33N 47°16' W 122°23'0 0.0
2014-Nov-16 09:33N 47°16' W 122°23'1 1.4
2014-Nov-16 08:33N 47°17' W 122°25'1 1.4
2014-Nov-16 07:33N 47°16' W 122°23'0 0.0
2014-Nov-16 06:33N 47°16' W 122°23'0 0.0
2014-Nov-16 05:33N 47°16' W 122°23'0 0.0
2014-Nov-16 04:56N 47°16' W 122°23'0 0.0
2014-Nov-16 04:33N 47°16' W 122°23'1 0.6
2014-Nov-16 03:33N 47°16' W 122°24'1 0.7
2014-Nov-16 02:30N 47°16' W 122°23'0 0.1
2014-Nov-16 01:33N 47°16' W 122°23'2 2.0
2014-Nov-16 00:33N 47°15' W 122°26'0 0.0
2014-Nov-15 23:33N 47°15' W 122°26'0 0.0
2014-Nov-15 22:32N 47°15' W 122°26'0 0.0
2014-Nov-15 21:33N 47°15' W 122°26'0 0.0
2014-Nov-15 20:29N 47°15' W 122°26'0 0.0
2014-Nov-15 19:33N 47°15' W 122°26'1 1.4
2014-Nov-15 18:55N 47°16' W 122°26'1 3.3
2014-Nov-15 18:33N 47°17' W 122°25'0 0.0
2014-Nov-15 17:33N 47°17' W 122°25'2 1.7
2014-Nov-15 16:33N 47°16' W 122°23'2 2.4
2014-Nov-15 15:50N 47°17' W 122°25'1 4.3
2014-Nov-15 15:33N 47°18' W 122°26'0 0.3
2014-Nov-15 14:33N 47°18' W 122°26'2 1.6
2014-Nov-15 13:33N 47°16' W 122°24'1 1.3
2014-Nov-15 12:33N 47°16' W 122°23'1 0.7
2014-Nov-15 11:33N 47°16' W 122°24'0 0.4
2014-Nov-15 10:32N 47°16' W 122°24'0 0.1
2014-Nov-15 09:33N 47°16' W 122°24'0 0.0
2014-Nov-15 08:29N 47°16' W 122°24'0 0.0
2014-Nov-15 07:33N 47°16' W 122°24'0 0.0
2014-Nov-15 06:29N 47°16' W 122°24'0 0.0
2014-Nov-15 05:28N 47°16' W 122°24'0 0.0
2014-Nov-15 04:28N 47°16' W 122°24'1 1.6
2014-Nov-15 03:32N 47°15' W 122°23'3 3.0
2014-Nov-15 02:33N 47°17' W 122°26'1 0.5
2014-Nov-15 01:33N 47°18' W 122°26'0 0.0
2014-Nov-15 00:33N 47°18' W 122°26'0 0.0
2014-Nov-14 23:33N 47°18' W 122°26'0 0.0
2014-Nov-14 22:33N 47°18' W 122°26'3 2.8
2014-Nov-14 21:33N 47°16' W 122°23'2 2.0
2014-Nov-14 20:33N 47°17' W 122°25'1 0.9
2014-Nov-14 19:31N 47°16' W 122°24'1 2.1
2014-Nov-14 18:58N 47°16' W 122°23'0 0.6
2014-Nov-14 18:33N 47°16' W 122°23'2 1.9
2014-Nov-14 17:33N 47°15' W 122°26'0 0.0
2014-Nov-14 16:33N 47°15' W 122°26'0 0.0
2014-Nov-14 15:33N 47°15' W 122°26'0 0.0
2014-Nov-14 14:33N 47°15' W 122°26'0 0.0
2014-Nov-14 12:33N 47°15' W 122°26'0 0.0
2014-Nov-14 12:22N 47°15' W 122°26'0 0.0
2014-Nov-14 11:33N 47°15' W 122°26'0 0.0
2014-Nov-14 10:33N 47°15' W 122°26'0 0.0
2014-Nov-14 09:33N 47°15' W 122°26'0 0.0
2014-Nov-14 09:31N 47°15' W 122°26'0 0.0
2014-Nov-14 08:33N 47°15' W 122°26'0 0.0
2014-Nov-14 07:33N 47°15' W 122°26'0 0.0
2014-Nov-14 06:33N 47°15' W 122°26'0 0.0
2014-Nov-14 05:33N 47°15' W 122°26'0 0.0
2014-Nov-14 04:33N 47°15' W 122°26'2 2.0
2014-Nov-14 03:31N 47°16' W 122°23'2 1.8
2014-Nov-14 02:33N 47°17' W 122°25'0 0.4
2014-Nov-14 01:33N 47°16' W 122°25'1 0.7
2014-Nov-14 00:33N 47°16' W 122°24'1 1.5
2014-Nov-13 23:33N 47°16' W 122°26'1 1.1
2014-Nov-13 22:33N 47°15' W 122°26'  

Dump ship's entire track history